Etusivu
METAR-TAF:

METAR-TAF

Lentoasemat :

Laghouat, Algeria

Leveyspiiri: 33-46N, Pituuspiiri: 002-56E, korkeus merenpinnasta: 765 m

Tämänhetkinen sää

Tämä raportti tehtiin 3 tuntia ja 5 minuuttia sitten, kello 21.00 UTC
tyyntä
Lämpötila 29°C
Kosteus 37%
Ilmanpaine 1019 hPa
Näkyvyys: 8000 m
Muutamia pilviä 3300 ft:n korkeudessa

METAR: DAUL 242100Z 00000KT 8000 FEW033 29/13 Q1019

Aika: 01:05 (00:05 UTC)

Sääennuste

Tämä raportti tehtiin 1 tunti ja 5 minuuttia sitten, kello 23.00 UTC
Ennuste voimassa 25. päivästä klo 00 UTC - 25. päivään klo 09 UTC
Tuuli 2 kn eri suunnista
Näkyvyys: 8000 m
Muutamia pilviä 3300 ft:n korkeudessa

TAF: DAUL 242300Z 2500/2509 VRB02KT 8000 FEW033

Säähavainnot ja -ennusteet yli 4000 lentoasemalta (METAR- ja TAF-raportit).

Käytössä olevat sääasemat on merkitty karttaan keltaisilla ja punaisilla pisteillä.

Aseta hiiri pisteen päälle nähdäksesi sääaseman nimen.

Klikkaa sitten nähdäksesi säähavainnot ja -ennusteet.

Kartan vaihtaminen: klikkaa mustalla rastilla varustettuja vihreitä pisteitä, niin voit zoomata sisään; viivalla varustettua vihreää pistettä, niin voit zoomata ulos tai vihreitä nuolia, niin pääset viereisille kartoille.


METAR-TAF: